sensor_id;sensor_type;location;lat;lon;timestamp;P1;durP1;ratioP1;P2;durP2;ratioP2
35290;SDS011;21411;50.024;19.220;2023-11-18T00:00:38;11.40;;;9.50;;
35290;SDS011;21411;50.024;19.220;2023-11-18T00:03:25;13.10;;;10.70;;
35290;SDS011;21411;50.024;19.220;2023-11-18T00:05:52;11.10;;;9.90;;
35290;SDS011;21411;50.024;19.220;2023-11-18T00:08:19;10.70;;;9.60;;
35290;SDS011;21411;50.024;19.220;2023-11-18T00:10:46;11.10;;;10.00;;
35290;SDS011;21411;50.024;19.220;2023-11-18T00:13:13;11.30;;;10.20;;
35290;SDS011;21411;50.024;19.220;2023-11-18T00:15:40;10.30;;;9.20;;
35290;SDS011;21411;50.024;19.220;2023-11-18T00:18:06;10.60;;;9.20;;
35290;SDS011;21411;50.024;19.220;2023-11-18T00:20:33;11.00;;;9.90;;
35290;SDS011;21411;50.024;19.220;2023-11-18T00:23:02;11.80;;;10.60;;
35290;SDS011;21411;50.024;19.220;2023-11-18T00:25:30;11.60;;;10.50;;
35290;SDS011;21411;50.024;19.220;2023-11-18T00:27:58;12.20;;;10.90;;
35290;SDS011;21411;50.024;19.220;2023-11-18T00:30:24;12.10;;;10.90;;
35290;SDS011;21411;50.024;19.220;2023-11-18T00:32:51;14.20;;;12.70;;
35290;SDS011;21411;50.024;19.220;2023-11-18T00:35:18;13.20;;;11.80;;
35290;SDS011;21411;50.024;19.220;2023-11-18T00:37:45;12.20;;;11.00;;
35290;SDS011;21411;50.024;19.220;2023-11-18T00:40:11;12.30;;;11.00;;
35290;SDS011;21411;50.024;19.220;2023-11-18T00:42:38;11.80;;;9.90;;
35290;SDS011;21411;50.024;19.220;2023-11-18T00:45:04;13.10;;;10.70;;
35290;SDS011;21411;50.024;19.220;2023-11-18T00:47:31;11.50;;;10.40;;
35290;SDS011;21411;50.024;19.220;2023-11-18T00:49:58;9.70;;;8.70;;
35290;SDS011;21411;50.024;19.220;2023-11-18T00:52:28;13.20;;;10.90;;
35290;SDS011;21411;50.024;19.220;2023-11-18T00:54:54;10.90;;;9.30;;
35290;SDS011;21411;50.024;19.220;2023-11-18T00:57:21;15.70;;;10.80;;
35290;SDS011;21411;50.024;19.220;2023-11-18T00:59:48;10.80;;;9.70;;
35290;SDS011;21411;50.024;19.220;2023-11-18T01:02:16;10.90;;;9.50;;
35290;SDS011;21411;50.024;19.220;2023-11-18T01:04:44;10.50;;;8.80;;
35290;SDS011;21411;50.024;19.220;2023-11-18T01:07:13;11.40;;;10.00;;
35290;SDS011;21411;50.024;19.220;2023-11-18T01:09:40;10.70;;;9.10;;
35290;SDS011;21411;50.024;19.220;2023-11-18T01:12:07;12.70;;;10.00;;
35290;SDS011;21411;50.024;19.220;2023-11-18T01:14:36;13.70;;;9.80;;
35290;SDS011;21411;50.024;19.220;2023-11-18T01:17:04;12.10;;;10.20;;
35290;SDS011;21411;50.024;19.220;2023-11-18T01:19:31;13.40;;;10.10;;
35290;SDS011;21411;50.024;19.220;2023-11-18T01:21:59;12.90;;;11.00;;
35290;SDS011;21411;50.024;19.220;2023-11-18T01:24:26;13.20;;;11.20;;
35290;SDS011;21411;50.024;19.220;2023-11-18T01:26:52;13.90;;;11.50;;
35290;SDS011;21411;50.024;19.220;2023-11-18T01:29:19;13.80;;;11.30;;
35290;SDS011;21411;50.024;19.220;2023-11-18T01:31:48;12.10;;;10.80;;
35290;SDS011;21411;50.024;19.220;2023-11-18T01:34:14;13.20;;;10.60;;
35290;SDS011;21411;50.024;19.220;2023-11-18T01:36:41;14.20;;;11.40;;
35290;SDS011;21411;50.024;19.220;2023-11-18T01:39:09;12.50;;;11.20;;
35290;SDS011;21411;50.024;19.220;2023-11-18T01:41:36;13.70;;;12.20;;
35290;SDS011;21411;50.024;19.220;2023-11-18T01:44:03;12.30;;;10.10;;
35290;SDS011;21411;50.024;19.220;2023-11-18T01:46:30;14.00;;;11.60;;
35290;SDS011;21411;50.024;19.220;2023-11-18T01:48:57;11.90;;;10.80;;
35290;SDS011;21411;50.024;19.220;2023-11-18T01:51:24;13.30;;;11.10;;
35290;SDS011;21411;50.024;19.220;2023-11-18T01:53:52;14.30;;;11.30;;
35290;SDS011;21411;50.024;19.220;2023-11-18T01:56:18;12.90;;;10.40;;
35290;SDS011;21411;50.024;19.220;2023-11-18T01:58:47;14.10;;;11.30;;
35290;SDS011;21411;50.024;19.220;2023-11-18T02:01:15;12.20;;;10.90;;
35290;SDS011;21411;50.024;19.220;2023-11-18T02:03:44;12.60;;;11.30;;
35290;SDS011;21411;50.024;19.220;2023-11-18T02:06:10;12.80;;;11.00;;
35290;SDS011;21411;50.024;19.220;2023-11-18T02:08:37;12.40;;;11.10;;
35290;SDS011;21411;50.024;19.220;2023-11-18T02:11:16;9.50;;;8.50;;
35290;SDS011;21411;50.024;19.220;2023-11-18T02:13:48;8.70;;;7.80;;
35290;SDS011;21411;50.024;19.220;2023-11-18T02:16:16;10.20;;;9.10;;
35290;SDS011;21411;50.024;19.220;2023-11-18T02:18:46;11.70;;;9.40;;
35290;SDS011;21411;50.024;19.220;2023-11-18T02:21:15;11.60;;;9.40;;
35290;SDS011;21411;50.024;19.220;2023-11-18T02:23:42;10.30;;;9.30;;
35290;SDS011;21411;50.024;19.220;2023-11-18T02:26:09;10.80;;;9.30;;
35290;SDS011;21411;50.024;19.220;2023-11-18T02:41:24;10.70;;;9.60;;
35290;SDS011;21411;50.024;19.220;2023-11-18T02:43:55;9.50;;;8.60;;
35290;SDS011;21411;50.024;19.220;2023-11-18T02:46:24;10.50;;;9.40;;
35290;SDS011;21411;50.024;19.220;2023-11-18T02:48:54;9.70;;;8.80;;
35290;SDS011;21411;50.024;19.220;2023-11-18T02:51:21;9.90;;;8.90;;
35290;SDS011;21411;50.024;19.220;2023-11-18T02:53:48;8.70;;;7.80;;
35290;SDS011;21411;50.024;19.220;2023-11-18T02:56:15;8.50;;;7.70;;
35290;SDS011;21411;50.024;19.220;2023-11-18T02:58:41;9.10;;;8.00;;
35290;SDS011;21411;50.024;19.220;2023-11-18T03:01:08;10.40;;;9.40;;
35290;SDS011;21411;50.024;19.220;2023-11-18T03:03:34;9.90;;;9.00;;
35290;SDS011;21411;50.024;19.220;2023-11-18T03:06:01;9.60;;;8.50;;
35290;SDS011;21411;50.024;19.220;2023-11-18T03:08:27;9.80;;;8.90;;
35290;SDS011;21411;50.024;19.220;2023-11-18T03:10:55;10.20;;;9.20;;
35290;SDS011;21411;50.024;19.220;2023-11-18T03:13:23;10.80;;;9.70;;
35290;SDS011;21411;50.024;19.220;2023-11-18T03:15:50;11.10;;;10.10;;
35290;SDS011;21411;50.024;19.220;2023-11-18T03:18:18;10.50;;;9.60;;
35290;SDS011;21411;50.024;19.220;2023-11-18T03:20:44;10.60;;;9.50;;
35290;SDS011;21411;50.024;19.220;2023-11-18T03:23:11;9.70;;;8.70;;
35290;SDS011;21411;50.024;19.220;2023-11-18T03:25:38;9.70;;;8.80;;
35290;SDS011;21411;50.024;19.220;2023-11-18T03:28:04;8.70;;;7.90;;
35290;SDS011;21411;50.024;19.220;2023-11-18T03:30:32;8.30;;;7.50;;
35290;SDS011;21411;50.024;19.220;2023-11-18T03:32:59;8.40;;;7.60;;
35290;SDS011;21411;50.024;19.220;2023-11-18T03:35:26;8.70;;;8.00;;
35290;SDS011;21411;50.024;19.220;2023-11-18T03:37:52;7.90;;;7.00;;
35290;SDS011;21411;50.024;19.220;2023-11-18T03:40:19;7.40;;;6.80;;
35290;SDS011;21411;50.024;19.220;2023-11-18T03:42:45;6.70;;;6.10;;
35290;SDS011;21411;50.024;19.220;2023-11-18T03:45:12;7.50;;;6.90;;
35290;SDS011;21411;50.024;19.220;2023-11-18T03:47:43;6.90;;;6.30;;
35290;SDS011;21411;50.024;19.220;2023-11-18T03:50:11;7.10;;;6.50;;
35290;SDS011;21411;50.024;19.220;2023-11-18T03:52:39;7.10;;;6.50;;
35290;SDS011;21411;50.024;19.220;2023-11-18T03:55:06;8.20;;;7.40;;
35290;SDS011;21411;50.024;19.220;2023-11-18T03:57:34;8.90;;;8.00;;
35290;SDS011;21411;50.024;19.220;2023-11-18T04:00:04;10.00;;;8.20;;
35290;SDS011;21411;50.024;19.220;2023-11-18T04:02:32;10.10;;;9.10;;
35290;SDS011;21411;50.024;19.220;2023-11-18T04:05:02;11.20;;;8.20;;
35290;SDS011;21411;50.024;19.220;2023-11-18T04:07:29;11.40;;;10.10;;
35290;SDS011;21411;50.024;19.220;2023-11-18T04:09:56;11.90;;;9.10;;
35290;SDS011;21411;50.024;19.220;2023-11-18T04:12:22;12.50;;;11.20;;
35290;SDS011;21411;50.024;19.220;2023-11-18T04:14:50;11.30;;;10.00;;
35290;SDS011;21411;50.024;19.220;2023-11-18T04:17:16;8.90;;;8.10;;
35290;SDS011;21411;50.024;19.220;2023-11-18T04:19:43;8.40;;;7.50;;
35290;SDS011;21411;50.024;19.220;2023-11-18T04:22:09;11.70;;;8.80;;
35290;SDS011;21411;50.024;19.220;2023-11-18T04:24:36;9.90;;;8.80;;
35290;SDS011;21411;50.024;19.220;2023-11-18T04:27:02;9.90;;;8.90;;
35290;SDS011;21411;50.024;19.220;2023-11-18T04:29:29;10.30;;;9.20;;
35290;SDS011;21411;50.024;19.220;2023-11-18T04:31:56;11.70;;;10.40;;
35290;SDS011;21411;50.024;19.220;2023-11-18T04:34:22;11.60;;;10.40;;
35290;SDS011;21411;50.024;19.220;2023-11-18T04:36:49;12.60;;;10.60;;
35290;SDS011;21411;50.024;19.220;2023-11-18T04:39:17;10.70;;;9.60;;
35290;SDS011;21411;50.024;19.220;2023-11-18T04:41:44;11.40;;;10.30;;
35290;SDS011;21411;50.024;19.220;2023-11-18T04:44:10;10.10;;;9.00;;
35290;SDS011;21411;50.024;19.220;2023-11-18T04:46:37;9.80;;;8.80;;
35290;SDS011;21411;50.024;19.220;2023-11-18T04:49:03;9.40;;;8.50;;
35290;SDS011;21411;50.024;19.220;2023-11-18T04:51:31;10.80;;;9.70;;
35290;SDS011;21411;50.024;19.220;2023-11-18T05:03:01;7.70;;;7.00;;
35290;SDS011;21411;50.024;19.220;2023-11-18T05:05:28;8.70;;;7.80;;
35290;SDS011;21411;50.024;19.220;2023-11-18T05:07:54;8.10;;;7.30;;
35290;SDS011;21411;50.024;19.220;2023-11-18T05:10:21;8.60;;;7.80;;
35290;SDS011;21411;50.024;19.220;2023-11-18T05:12:48;9.30;;;8.10;;
35290;SDS011;21411;50.024;19.220;2023-11-18T05:15:22;10.20;;;9.20;;
35290;SDS011;21411;50.024;19.220;2023-11-18T05:17:52;9.70;;;8.70;;
35290;SDS011;21411;50.024;19.220;2023-11-18T05:20:19;9.70;;;8.80;;
35290;SDS011;21411;50.024;19.220;2023-11-18T05:22:47;8.70;;;7.90;;
35290;SDS011;21411;50.024;19.220;2023-11-18T05:25:14;7.70;;;7.10;;
35290;SDS011;21411;50.024;19.220;2023-11-18T05:27:41;9.10;;;8.30;;
35290;SDS011;21411;50.024;19.220;2023-11-18T05:30:08;8.70;;;8.00;;
35290;SDS011;21411;50.024;19.220;2023-11-18T05:32:35;8.50;;;7.80;;
35290;SDS011;21411;50.024;19.220;2023-11-18T05:35:03;8.90;;;8.10;;
35290;SDS011;21411;50.024;19.220;2023-11-18T05:37:31;7.80;;;7.00;;
35290;SDS011;21411;50.024;19.220;2023-11-18T05:40:04;9.00;;;8.20;;
35290;SDS011;21411;50.024;19.220;2023-11-18T05:42:36;9.80;;;8.90;;
35290;SDS011;21411;50.024;19.220;2023-11-18T05:45:03;10.30;;;9.30;;
35290;SDS011;21411;50.024;19.220;2023-11-18T05:47:30;8.00;;;7.30;;
35290;SDS011;21411;50.024;19.220;2023-11-18T05:49:57;10.20;;;9.20;;
35290;SDS011;21411;50.024;19.220;2023-11-18T05:52:24;11.20;;;10.10;;
35290;SDS011;21411;50.024;19.220;2023-11-18T05:54:50;10.20;;;9.20;;
35290;SDS011;21411;50.024;19.220;2023-11-18T05:57:17;9.90;;;9.00;;
35290;SDS011;21411;50.024;19.220;2023-11-18T05:59:45;9.40;;;8.60;;
35290;SDS011;21411;50.024;19.220;2023-11-18T06:02:14;9.00;;;8.10;;
35290;SDS011;21411;50.024;19.220;2023-11-18T06:04:44;8.30;;;7.60;;
35290;SDS011;21411;50.024;19.220;2023-11-18T06:07:11;7.30;;;6.60;;
35290;SDS011;21411;50.024;19.220;2023-11-18T06:09:40;6.30;;;5.80;;
35290;SDS011;21411;50.024;19.220;2023-11-18T06:12:08;5.90;;;5.40;;
35290;SDS011;21411;50.024;19.220;2023-11-18T06:14:37;6.80;;;5.30;;
35290;SDS011;21411;50.024;19.220;2023-11-18T06:17:04;6.30;;;5.70;;
35290;SDS011;21411;50.024;19.220;2023-11-18T06:19:33;7.30;;;6.30;;
35290;SDS011;21411;50.024;19.220;2023-11-18T06:22:00;7.60;;;6.90;;
35290;SDS011;21411;50.024;19.220;2023-11-18T06:24:27;8.60;;;7.80;;
35290;SDS011;21411;50.024;19.220;2023-11-18T06:26:54;8.30;;;7.50;;
35290;SDS011;21411;50.024;19.220;2023-11-18T06:29:21;9.90;;;8.90;;
35290;SDS011;21411;50.024;19.220;2023-11-18T06:31:47;13.20;;;10.40;;
35290;SDS011;21411;50.024;19.220;2023-11-18T06:34:14;12.80;;;11.60;;
35290;SDS011;21411;50.024;19.220;2023-11-18T06:36:41;11.30;;;10.20;;
35290;SDS011;21411;50.024;19.220;2023-11-18T06:39:08;12.40;;;11.30;;
35290;SDS011;21411;50.024;19.220;2023-11-18T06:41:35;11.00;;;9.90;;
35290;SDS011;21411;50.024;19.220;2023-11-18T06:44:04;10.60;;;9.60;;
35290;SDS011;21411;50.024;19.220;2023-11-18T06:46:39;11.00;;;9.80;;
35290;SDS011;21411;50.024;19.220;2023-11-18T06:49:06;10.20;;;8.80;;
35290;SDS011;21411;50.024;19.220;2023-11-18T06:51:34;9.60;;;8.60;;
35290;SDS011;21411;50.024;19.220;2023-11-18T06:54:01;11.20;;;7.70;;
35290;SDS011;21411;50.024;19.220;2023-11-18T06:56:35;7.00;;;6.30;;
35290;SDS011;21411;50.024;19.220;2023-11-18T06:59:07;5.70;;;5.10;;
35290;SDS011;21411;50.024;19.220;2023-11-18T07:04:02;4.90;;;4.40;;
35290;SDS011;21411;50.024;19.220;2023-11-18T07:06:29;3.80;;;3.50;;
35290;SDS011;21411;50.024;19.220;2023-11-18T07:08:55;4.70;;;4.30;;
35290;SDS011;21411;50.024;19.220;2023-11-18T07:11:26;5.90;;;5.40;;
35290;SDS011;21411;50.024;19.220;2023-11-18T07:13:54;5.80;;;5.10;;
35290;SDS011;21411;50.024;19.220;2023-11-18T07:16:23;6.30;;;5.70;;
35290;SDS011;21411;50.024;19.220;2023-11-18T07:18:51;5.80;;;5.30;;
35290;SDS011;21411;50.024;19.220;2023-11-18T07:21:18;6.10;;;5.50;;
35290;SDS011;21411;50.024;19.220;2023-11-18T07:23:46;6.40;;;5.80;;
35290;SDS011;21411;50.024;19.220;2023-11-18T07:26:12;6.40;;;5.80;;
35290;SDS011;21411;50.024;19.220;2023-11-18T07:28:42;7.30;;;6.60;;
35290;SDS011;21411;50.024;19.220;2023-11-18T07:31:10;6.50;;;5.90;;
35290;SDS011;21411;50.024;19.220;2023-11-18T07:33:36;6.80;;;5.70;;
35290;SDS011;21411;50.024;19.220;2023-11-18T07:36:03;7.10;;;6.40;;
35290;SDS011;21411;50.024;19.220;2023-11-18T07:38:32;6.90;;;6.10;;
35290;SDS011;21411;50.024;19.220;2023-11-18T07:41:00;8.50;;;7.10;;
35290;SDS011;21411;50.024;19.220;2023-11-18T07:43:29;10.20;;;8.20;;
35290;SDS011;21411;50.024;19.220;2023-11-18T07:45:56;11.20;;;7.50;;
35290;SDS011;21411;50.024;19.220;2023-11-18T07:48:23;11.60;;;9.50;;
35290;SDS011;21411;50.024;19.220;2023-11-18T07:50:49;10.70;;;8.90;;
35290;SDS011;21411;50.024;19.220;2023-11-18T07:53:16;16.40;;;12.30;;
35290;SDS011;21411;50.024;19.220;2023-11-18T07:55:43;20.80;;;15.30;;
35290;SDS011;21411;50.024;19.220;2023-11-18T07:58:11;26.10;;;17.00;;
35290;SDS011;21411;50.024;19.220;2023-11-18T08:00:38;21.50;;;15.80;;
35290;SDS011;21411;50.024;19.220;2023-11-18T08:03:06;27.00;;;18.10;;
35290;SDS011;21411;50.024;19.220;2023-11-18T08:05:41;24.90;;;18.20;;
35290;SDS011;21411;50.024;19.220;2023-11-18T08:08:12;28.10;;;19.00;;
35290;SDS011;21411;50.024;19.220;2023-11-18T08:10:40;28.90;;;20.30;;
35290;SDS011;21411;50.024;19.220;2023-11-18T08:13:08;32.00;;;22.10;;
35290;SDS011;21411;50.024;19.220;2023-11-18T08:15:38;21.90;;;15.50;;
35290;SDS011;21411;50.024;19.220;2023-11-18T08:18:08;15.70;;;13.40;;
35290;SDS011;21411;50.024;19.220;2023-11-18T08:20:38;18.20;;;13.60;;
35290;SDS011;21411;50.024;19.220;2023-11-18T08:23:05;16.90;;;13.00;;
35290;SDS011;21411;50.024;19.220;2023-11-18T08:25:32;19.70;;;15.00;;
35290;SDS011;21411;50.024;19.220;2023-11-18T08:28:07;18.70;;;14.30;;
35290;SDS011;21411;50.024;19.220;2023-11-18T08:30:34;17.80;;;14.20;;
35290;SDS011;21411;50.024;19.220;2023-11-18T08:33:03;18.00;;;14.20;;
35290;SDS011;21411;50.024;19.220;2023-11-18T08:35:35;18.90;;;14.90;;
35290;SDS011;21411;50.024;19.220;2023-11-18T08:38:02;19.40;;;14.30;;
35290;SDS011;21411;50.024;19.220;2023-11-18T08:40:30;18.00;;;13.90;;
35290;SDS011;21411;50.024;19.220;2023-11-18T08:42:57;18.70;;;14.60;;
35290;SDS011;21411;50.024;19.220;2023-11-18T08:45:25;18.30;;;15.40;;
35290;SDS011;21411;50.024;19.220;2023-11-18T08:47:59;19.40;;;15.30;;
35290;SDS011;21411;50.024;19.220;2023-11-18T08:50:27;23.60;;;15.90;;
35290;SDS011;21411;50.024;19.220;2023-11-18T08:52:55;20.00;;;15.70;;
35290;SDS011;21411;50.024;19.220;2023-11-18T08:55:29;20.60;;;15.50;;
35290;SDS011;21411;50.024;19.220;2023-11-18T08:58:00;19.10;;;15.00;;
35290;SDS011;21411;50.024;19.220;2023-11-18T09:00:31;22.40;;;16.20;;
35290;SDS011;21411;50.024;19.220;2023-11-18T09:03:11;18.40;;;15.40;;
35290;SDS011;21411;50.024;19.220;2023-11-18T09:10:56;21.00;;;14.90;;
35290;SDS011;21411;50.024;19.220;2023-11-18T09:13:24;12.10;;;8.40;;
35290;SDS011;21411;50.024;19.220;2023-11-18T09:15:56;16.20;;;11.70;;
35290;SDS011;21411;50.024;19.220;2023-11-18T09:18:24;10.40;;;7.70;;
35290;SDS011;21411;50.024;19.220;2023-11-18T09:20:51;6.80;;;5.30;;
35290;SDS011;21411;50.024;19.220;2023-11-18T09:23:21;4.90;;;4.30;;
35290;SDS011;21411;50.024;19.220;2023-11-18T09:25:51;7.30;;;5.50;;
35290;SDS011;21411;50.024;19.220;2023-11-18T09:28:19;9.10;;;7.70;;
35290;SDS011;21411;50.024;19.220;2023-11-18T09:30:47;14.00;;;10.60;;
35290;SDS011;21411;50.024;19.220;2023-11-18T09:33:20;12.20;;;8.70;;
35290;SDS011;21411;50.024;19.220;2023-11-18T09:36:03;11.60;;;9.10;;
35290;SDS011;21411;50.024;19.220;2023-11-18T09:38:36;10.70;;;8.10;;
35290;SDS011;21411;50.024;19.220;2023-11-18T09:41:07;10.30;;;8.70;;
35290;SDS011;21411;50.024;19.220;2023-11-18T09:43:40;12.30;;;8.50;;
35290;SDS011;21411;50.024;19.220;2023-11-18T09:46:23;13.00;;;9.40;;
35290;SDS011;21411;50.024;19.220;2023-11-18T09:48:51;14.30;;;9.40;;
35290;SDS011;21411;50.024;19.220;2023-11-18T09:51:41;9.90;;;7.90;;
35290;SDS011;21411;50.024;19.220;2023-11-18T09:57:19;12.20;;;9.80;;
35290;SDS011;21411;50.024;19.220;2023-11-18T10:00:02;13.00;;;10.40;;
35290;SDS011;21411;50.024;19.220;2023-11-18T10:02:53;14.80;;;11.00;;
35290;SDS011;21411;50.024;19.220;2023-11-18T10:05:22;15.10;;;11.20;;
35290;SDS011;21411;50.024;19.220;2023-11-18T10:07:53;12.90;;;11.30;;
35290;SDS011;21411;50.024;19.220;2023-11-18T10:10:20;12.80;;;10.90;;
35290;SDS011;21411;50.024;19.220;2023-11-18T10:12:47;8.80;;;6.60;;
35290;SDS011;21411;50.024;19.220;2023-11-18T10:15:26;9.30;;;7.90;;
35290;SDS011;21411;50.024;19.220;2023-11-18T10:17:54;9.80;;;8.10;;
35290;SDS011;21411;50.024;19.220;2023-11-18T10:20:42;9.30;;;8.30;;
35290;SDS011;21411;50.024;19.220;2023-11-18T10:23:14;9.40;;;8.20;;
35290;SDS011;21411;50.024;19.220;2023-11-18T10:25:56;9.70;;;8.50;;
35290;SDS011;21411;50.024;19.220;2023-11-18T10:28:25;16.70;;;12.30;;
35290;SDS011;21411;50.024;19.220;2023-11-18T10:33:33;12.00;;;9.00;;
35290;SDS011;21411;50.024;19.220;2023-11-18T10:36:03;10.00;;;8.80;;
35290;SDS011;21411;50.024;19.220;2023-11-18T10:38:31;11.20;;;8.70;;
35290;SDS011;21411;50.024;19.220;2023-11-18T10:41:03;10.80;;;8.50;;
35290;SDS011;21411;50.024;19.220;2023-11-18T10:43:29;11.70;;;9.80;;
35290;SDS011;21411;50.024;19.220;2023-11-18T10:46:06;9.00;;;8.10;;
35290;SDS011;21411;50.024;19.220;2023-11-18T10:48:44;10.10;;;8.40;;
35290;SDS011;21411;50.024;19.220;2023-11-18T10:51:17;9.70;;;8.70;;
35290;SDS011;21411;50.024;19.220;2023-11-18T10:53:53;9.70;;;8.50;;
35290;SDS011;21411;50.024;19.220;2023-11-18T10:56:25;11.00;;;8.60;;
35290;SDS011;21411;50.024;19.220;2023-11-18T10:58:55;10.80;;;8.80;;
35290;SDS011;21411;50.024;19.220;2023-11-18T11:01:29;11.40;;;8.80;;
35290;SDS011;21411;50.024;19.220;2023-11-18T11:04:00;11.30;;;9.60;;
35290;SDS011;21411;50.024;19.220;2023-11-18T11:06:31;12.60;;;9.90;;
35290;SDS011;21411;50.024;19.220;2023-11-18T11:08:59;10.60;;;9.50;;
35290;SDS011;21411;50.024;19.220;2023-11-18T11:11:27;11.10;;;9.30;;
35290;SDS011;21411;50.024;19.220;2023-11-18T11:14:00;9.10;;;7.90;;
35290;SDS011;21411;50.024;19.220;2023-11-18T11:16:50;7.50;;;6.80;;
35290;SDS011;21411;50.024;19.220;2023-11-18T11:21:55;7.20;;;6.50;;
35290;SDS011;21411;50.024;19.220;2023-11-18T11:27:38;7.30;;;6.50;;
35290;SDS011;21411;50.024;19.220;2023-11-18T11:30:21;8.60;;;6.80;;
35290;SDS011;21411;50.024;19.220;2023-11-18T11:32:51;9.30;;;6.80;;
35290;SDS011;21411;50.024;19.220;2023-11-18T11:35:23;6.70;;;5.90;;
35290;SDS011;21411;50.024;19.220;2023-11-18T11:37:53;6.50;;;5.90;;
35290;SDS011;21411;50.024;19.220;2023-11-18T11:40:23;7.30;;;6.50;;
35290;SDS011;21411;50.024;19.220;2023-11-18T11:42:52;10.00;;;8.00;;
35290;SDS011;21411;50.024;19.220;2023-11-18T11:45:22;7.20;;;6.50;;
35290;SDS011;21411;50.024;19.220;2023-11-18T11:47:55;7.70;;;7.00;;
35290;SDS011;21411;50.024;19.220;2023-11-18T11:53:35;9.40;;;7.70;;
35290;SDS011;21411;50.024;19.220;2023-11-18T11:56:05;7.60;;;6.00;;
35290;SDS011;21411;50.024;19.220;2023-11-18T11:58:33;8.30;;;7.50;;
35290;SDS011;21411;50.024;19.220;2023-11-18T12:03:54;8.50;;;7.10;;
35290;SDS011;21411;50.024;19.220;2023-11-18T12:06:24;8.00;;;7.20;;
35290;SDS011;21411;50.024;19.220;2023-11-18T12:08:53;8.40;;;7.50;;
35290;SDS011;21411;50.024;19.220;2023-11-18T12:11:19;11.40;;;8.60;;
35290;SDS011;21411;50.024;19.220;2023-11-18T12:14:04;8.40;;;7.50;;
35290;SDS011;21411;50.024;19.220;2023-11-18T12:19:39;9.00;;;7.50;;
35290;SDS011;21411;50.024;19.220;2023-11-18T12:22:17;8.20;;;7.30;;
35290;SDS011;21411;50.024;19.220;2023-11-18T12:24:45;8.50;;;7.30;;
35290;SDS011;21411;50.024;19.220;2023-11-18T12:27:14;9.70;;;7.90;;
35290;SDS011;21411;50.024;19.220;2023-11-18T12:35:22;11.70;;;9.30;;
35290;SDS011;21411;50.024;19.220;2023-11-18T12:40:53;8.70;;;7.70;;
35290;SDS011;21411;50.024;19.220;2023-11-18T12:46:26;17.80;;;12.50;;
35290;SDS011;21411;50.024;19.220;2023-11-18T12:48:57;11.40;;;9.50;;
35290;SDS011;21411;50.024;19.220;2023-11-18T12:51:27;11.00;;;9.70;;
35290;SDS011;21411;50.024;19.220;2023-11-18T12:53:54;11.00;;;9.90;;
35290;SDS011;21411;50.024;19.220;2023-11-18T12:56:20;10.50;;;8.70;;
35290;SDS011;21411;50.024;19.220;2023-11-18T12:58:49;12.50;;;11.10;;
35290;SDS011;21411;50.024;19.220;2023-11-18T13:01:17;14.40;;;11.50;;
35290;SDS011;21411;50.024;19.220;2023-11-18T13:03:45;11.20;;;10.10;;
35290;SDS011;21411;50.024;19.220;2023-11-18T13:06:13;13.20;;;10.90;;
35290;SDS011;21411;50.024;19.220;2023-11-18T13:08:40;12.60;;;11.30;;
35290;SDS011;21411;50.024;19.220;2023-11-18T13:11:08;15.70;;;12.80;;
35290;SDS011;21411;50.024;19.220;2023-11-18T13:13:42;13.50;;;11.50;;
35290;SDS011;21411;50.024;19.220;2023-11-18T13:16:09;12.60;;;9.40;;
35290;SDS011;21411;50.024;19.220;2023-11-18T13:18:43;11.70;;;9.70;;
35290;SDS011;21411;50.024;19.220;2023-11-18T13:21:14;11.80;;;9.50;;
35290;SDS011;21411;50.024;19.220;2023-11-18T13:23:45;13.60;;;11.10;;
35290;SDS011;21411;50.024;19.220;2023-11-18T13:26:18;14.00;;;10.30;;
35290;SDS011;21411;50.024;19.220;2023-11-18T13:28:46;15.00;;;13.30;;
35290;SDS011;21411;50.024;19.220;2023-11-18T13:31:15;13.70;;;11.50;;
35290;SDS011;21411;50.024;19.220;2023-11-18T13:33:43;11.80;;;10.60;;
35290;SDS011;21411;50.024;19.220;2023-11-18T13:36:10;15.00;;;11.70;;
35290;SDS011;21411;50.024;19.220;2023-11-18T13:38:37;12.40;;;10.10;;
35290;SDS011;21411;50.024;19.220;2023-11-18T13:41:04;14.00;;;12.20;;
35290;SDS011;21411;50.024;19.220;2023-11-18T13:43:41;16.00;;;13.10;;
35290;SDS011;21411;50.024;19.220;2023-11-18T13:46:12;14.70;;;12.90;;
35290;SDS011;21411;50.024;19.220;2023-11-18T13:48:46;14.90;;;12.50;;
35290;SDS011;21411;50.024;19.220;2023-11-18T13:51:15;14.50;;;11.70;;
35290;SDS011;21411;50.024;19.220;2023-11-18T13:53:42;15.50;;;13.30;;
35290;SDS011;21411;50.024;19.220;2023-11-18T13:56:10;17.00;;;14.70;;
35290;SDS011;21411;50.024;19.220;2023-11-18T13:58:36;22.00;;;16.20;;
35290;SDS011;21411;50.024;19.220;2023-11-18T14:01:05;15.50;;;12.90;;
35290;SDS011;21411;50.024;19.220;2023-11-18T14:03:37;16.70;;;13.50;;
35290;SDS011;21411;50.024;19.220;2023-11-18T14:06:07;15.20;;;12.20;;
35290;SDS011;21411;50.024;19.220;2023-11-18T14:08:37;14.60;;;12.70;;
35290;SDS011;21411;50.024;19.220;2023-11-18T14:11:03;16.60;;;14.70;;
35290;SDS011;21411;50.024;19.220;2023-11-18T14:13:32;12.80;;;11.50;;
35290;SDS011;21411;50.024;19.220;2023-11-18T14:16:01;13.60;;;11.90;;
35290;SDS011;21411;50.024;19.220;2023-11-18T14:18:28;14.00;;;11.70;;
35290;SDS011;21411;50.024;19.220;2023-11-18T14:20:55;14.00;;;12.40;;
35290;SDS011;21411;50.024;19.220;2023-11-18T14:23:23;12.80;;;11.10;;
35290;SDS011;21411;50.024;19.220;2023-11-18T14:25:49;14.50;;;13.00;;
35290;SDS011;21411;50.024;19.220;2023-11-18T14:28:16;14.00;;;11.60;;
35290;SDS011;21411;50.024;19.220;2023-11-18T14:30:43;16.00;;;12.50;;
35290;SDS011;21411;50.024;19.220;2023-11-18T14:33:10;14.90;;;13.40;;
35290;SDS011;21411;50.024;19.220;2023-11-18T14:35:37;15.10;;;13.40;;
35290;SDS011;21411;50.024;19.220;2023-11-18T14:38:06;15.80;;;14.10;;
35290;SDS011;21411;50.024;19.220;2023-11-18T14:40:34;15.90;;;13.10;;
35290;SDS011;21411;50.024;19.220;2023-11-18T14:43:01;16.90;;;13.00;;
35290;SDS011;21411;50.024;19.220;2023-11-18T14:45:27;20.20;;;17.00;;
35290;SDS011;21411;50.024;19.220;2023-11-18T14:47:54;15.50;;;13.20;;
35290;SDS011;21411;50.024;19.220;2023-11-18T14:50:22;15.50;;;13.70;;
35290;SDS011;21411;50.024;19.220;2023-11-18T14:52:50;16.10;;;12.60;;
35290;SDS011;21411;50.024;19.220;2023-11-18T14:55:26;11.30;;;9.80;;
35290;SDS011;21411;50.024;19.220;2023-11-18T14:57:53;14.80;;;12.80;;
35290;SDS011;21411;50.024;19.220;2023-11-18T15:00:21;16.20;;;14.10;;
35290;SDS011;21411;50.024;19.220;2023-11-18T15:02:51;13.80;;;11.10;;
35290;SDS011;21411;50.024;19.220;2023-11-18T15:05:19;13.60;;;12.20;;
35290;SDS011;21411;50.024;19.220;2023-11-18T15:07:50;16.60;;;13.10;;
35290;SDS011;21411;50.024;19.220;2023-11-18T15:10:19;19.70;;;15.00;;
35290;SDS011;21411;50.024;19.220;2023-11-18T15:12:50;18.30;;;13.80;;
35290;SDS011;21411;50.024;19.220;2023-11-18T15:15:24;18.00;;;16.00;;
35290;SDS011;21411;50.024;19.220;2023-11-18T15:17:58;19.60;;;15.00;;
35290;SDS011;21411;50.024;19.220;2023-11-18T15:20:25;17.20;;;14.50;;
35290;SDS011;21411;50.024;19.220;2023-11-18T15:22:52;17.10;;;14.40;;
35290;SDS011;21411;50.024;19.220;2023-11-18T15:25:18;19.30;;;15.90;;
35290;SDS011;21411;50.024;19.220;2023-11-18T15:27:45;23.60;;;17.30;;
35290;SDS011;21411;50.024;19.220;2023-11-18T15:30:13;21.60;;;15.40;;
35290;SDS011;21411;50.024;19.220;2023-11-18T15:32:41;17.00;;;14.90;;